sensor_id;sensor_type;location;lat;lon;timestamp;P1;durP1;ratioP1;P2;durP2;ratioP2
47892;SDS011;33650;51.064;13.756;2022-08-19T00:01:42;12.77;;;10.10;;
47892;SDS011;33650;51.064;13.756;2022-08-19T00:04:14;11.23;;;10.23;;
47892;SDS011;33650;51.064;13.756;2022-08-19T00:06:45;11.57;;;8.93;;
47892;SDS011;33650;51.064;13.756;2022-08-19T00:09:17;11.50;;;10.38;;
47892;SDS011;33650;51.064;13.756;2022-08-19T00:11:49;10.90;;;9.75;;
47892;SDS011;33650;51.064;13.756;2022-08-19T00:14:20;10.98;;;9.88;;
47892;SDS011;33650;51.064;13.756;2022-08-19T00:16:52;10.40;;;8.48;;
47892;SDS011;33650;51.064;13.756;2022-08-19T00:19:24;11.55;;;10.50;;
47892;SDS011;33650;51.064;13.756;2022-08-19T00:21:55;11.82;;;10.15;;
47892;SDS011;33650;51.064;13.756;2022-08-19T00:24:26;14.23;;;11.23;;
47892;SDS011;33650;51.064;13.756;2022-08-19T00:26:58;14.63;;;10.68;;
47892;SDS011;33650;51.064;13.756;2022-08-19T00:29:31;11.52;;;9.77;;
47892;SDS011;33650;51.064;13.756;2022-08-19T00:32:02;10.63;;;9.63;;
47892;SDS011;33650;51.064;13.756;2022-08-19T00:34:34;12.20;;;10.95;;
47892;SDS011;33650;51.064;13.756;2022-08-19T00:37:05;12.43;;;11.20;;
47892;SDS011;33650;51.064;13.756;2022-08-19T00:39:36;11.50;;;10.30;;
47892;SDS011;33650;51.064;13.756;2022-08-19T00:42:07;13.95;;;12.45;;
47892;SDS011;33650;51.064;13.756;2022-08-19T00:44:38;12.10;;;10.88;;
47892;SDS011;33650;51.064;13.756;2022-08-19T00:47:09;11.60;;;10.20;;
47892;SDS011;33650;51.064;13.756;2022-08-19T00:49:42;15.90;;;12.07;;
47892;SDS011;33650;51.064;13.756;2022-08-19T00:52:17;11.25;;;9.70;;
47892;SDS011;33650;51.064;13.756;2022-08-19T00:54:49;12.18;;;10.98;;
47892;SDS011;33650;51.064;13.756;2022-08-19T00:57:32;12.65;;;11.35;;
47892;SDS011;33650;51.064;13.756;2022-08-19T01:00:09;15.38;;;10.98;;
47892;SDS011;33650;51.064;13.756;2022-08-19T01:02:42;14.65;;;11.88;;
47892;SDS011;33650;51.064;13.756;2022-08-19T01:05:15;13.00;;;10.95;;
47892;SDS011;33650;51.064;13.756;2022-08-19T01:07:48;13.70;;;11.25;;
47892;SDS011;33650;51.064;13.756;2022-08-19T01:10:22;13.98;;;12.43;;
47892;SDS011;33650;51.064;13.756;2022-08-19T01:12:54;13.57;;;11.38;;
47892;SDS011;33650;51.064;13.756;2022-08-19T01:15:29;14.02;;;12.07;;
47892;SDS011;33650;51.064;13.756;2022-08-19T01:18:04;14.23;;;12.75;;
47892;SDS011;33650;51.064;13.756;2022-08-19T01:20:36;11.70;;;10.50;;
47892;SDS011;33650;51.064;13.756;2022-08-19T01:23:07;14.00;;;12.43;;
47892;SDS011;33650;51.064;13.756;2022-08-19T01:25:47;14.13;;;12.63;;
47892;SDS011;33650;51.064;13.756;2022-08-19T01:28:21;15.75;;;13.38;;
47892;SDS011;33650;51.064;13.756;2022-08-19T01:30:53;14.50;;;11.40;;
47892;SDS011;33650;51.064;13.756;2022-08-19T01:33:24;17.00;;;13.43;;
47892;SDS011;33650;51.064;13.756;2022-08-19T01:36:02;17.73;;;13.65;;
47892;SDS011;33650;51.064;13.756;2022-08-19T01:38:36;14.35;;;12.85;;
47892;SDS011;33650;51.064;13.756;2022-08-19T01:41:08;17.48;;;13.35;;
47892;SDS011;33650;51.064;13.756;2022-08-19T01:43:40;14.60;;;12.63;;
47892;SDS011;33650;51.064;13.756;2022-08-19T01:46:11;17.20;;;13.52;;
47892;SDS011;33650;51.064;13.756;2022-08-19T01:48:42;14.88;;;13.23;;
47892;SDS011;33650;51.064;13.756;2022-08-19T01:51:13;14.73;;;12.48;;
47892;SDS011;33650;51.064;13.756;2022-08-19T01:53:46;17.65;;;13.65;;
47892;SDS011;33650;51.064;13.756;2022-08-19T01:56:18;16.05;;;13.45;;
47892;SDS011;33650;51.064;13.756;2022-08-19T01:58:51;17.52;;;14.77;;
47892;SDS011;33650;51.064;13.756;2022-08-19T02:01:24;22.42;;;14.68;;
47892;SDS011;33650;51.064;13.756;2022-08-19T02:03:55;21.50;;;14.75;;
47892;SDS011;33650;51.064;13.756;2022-08-19T02:06:26;17.33;;;14.82;;
47892;SDS011;33650;51.064;13.756;2022-08-19T02:08:57;12.60;;;11.07;;
47892;SDS011;33650;51.064;13.756;2022-08-19T02:11:30;14.10;;;11.27;;
47892;SDS011;33650;51.064;13.756;2022-08-19T02:14:05;12.73;;;10.95;;
47892;SDS011;33650;51.064;13.756;2022-08-19T02:16:36;13.60;;;10.63;;
47892;SDS011;33650;51.064;13.756;2022-08-19T02:19:08;12.38;;;10.23;;
47892;SDS011;33650;51.064;13.756;2022-08-19T02:21:40;10.80;;;8.73;;
47892;SDS011;33650;51.064;13.756;2022-08-19T02:24:11;11.63;;;9.57;;
47892;SDS011;33650;51.064;13.756;2022-08-19T02:26:42;11.35;;;9.07;;
47892;SDS011;33650;51.064;13.756;2022-08-19T02:29:14;9.82;;;8.85;;
47892;SDS011;33650;51.064;13.756;2022-08-19T02:31:45;12.23;;;9.85;;
47892;SDS011;33650;51.064;13.756;2022-08-19T02:34:16;13.50;;;10.13;;
47892;SDS011;33650;51.064;13.756;2022-08-19T02:36:47;11.38;;;9.27;;
47892;SDS011;33650;51.064;13.756;2022-08-19T02:39:18;11.98;;;10.00;;
47892;SDS011;33650;51.064;13.756;2022-08-19T02:41:49;11.55;;;10.00;;
47892;SDS011;33650;51.064;13.756;2022-08-19T02:44:22;11.40;;;9.43;;
47892;SDS011;33650;51.064;13.756;2022-08-19T02:46:53;12.73;;;10.77;;
47892;SDS011;33650;51.064;13.756;2022-08-19T02:49:25;13.20;;;9.57;;
47892;SDS011;33650;51.064;13.756;2022-08-19T02:51:56;14.27;;;10.70;;
47892;SDS011;33650;51.064;13.756;2022-08-19T02:54:27;13.77;;;10.73;;
47892;SDS011;33650;51.064;13.756;2022-08-19T02:56:58;11.30;;;10.15;;
47892;SDS011;33650;51.064;13.756;2022-08-19T02:59:30;12.77;;;10.80;;
47892;SDS011;33650;51.064;13.756;2022-08-19T03:02:01;10.15;;;9.05;;
47892;SDS011;33650;51.064;13.756;2022-08-19T03:04:32;11.18;;;10.05;;
47892;SDS011;33650;51.064;13.756;2022-08-19T03:07:03;13.57;;;10.77;;
47892;SDS011;33650;51.064;13.756;2022-08-19T03:09:36;12.73;;;11.23;;
47892;SDS011;33650;51.064;13.756;2022-08-19T03:12:08;10.25;;;9.20;;
47892;SDS011;33650;51.064;13.756;2022-08-19T03:14:40;15.13;;;9.95;;
47892;SDS011;33650;51.064;13.756;2022-08-19T03:17:11;12.88;;;10.80;;
47892;SDS011;33650;51.064;13.756;2022-08-19T03:19:42;14.70;;;11.60;;
47892;SDS011;33650;51.064;13.756;2022-08-19T03:22:13;16.20;;;10.60;;
47892;SDS011;33650;51.064;13.756;2022-08-19T03:24:44;12.98;;;11.13;;
47892;SDS011;33650;51.064;13.756;2022-08-19T03:27:15;13.95;;;11.57;;
47892;SDS011;33650;51.064;13.756;2022-08-19T03:29:47;15.40;;;11.95;;
47892;SDS011;33650;51.064;13.756;2022-08-19T03:32:18;12.02;;;10.80;;
47892;SDS011;33650;51.064;13.756;2022-08-19T03:34:49;11.55;;;10.35;;
47892;SDS011;33650;51.064;13.756;2022-08-19T03:37:20;12.07;;;10.10;;
47892;SDS011;33650;51.064;13.756;2022-08-19T03:39:52;14.60;;;12.45;;
47892;SDS011;33650;51.064;13.756;2022-08-19T03:42:23;14.15;;;10.40;;
47892;SDS011;33650;51.064;13.756;2022-08-19T03:44:57;11.32;;;9.52;;
47892;SDS011;33650;51.064;13.756;2022-08-19T03:47:28;12.68;;;11.38;;
47892;SDS011;33650;51.064;13.756;2022-08-19T03:50:00;12.13;;;10.93;;
47892;SDS011;33650;51.064;13.756;2022-08-19T03:52:32;11.15;;;9.90;;
47892;SDS011;33650;51.064;13.756;2022-08-19T03:55:03;11.13;;;9.88;;
47892;SDS011;33650;51.064;13.756;2022-08-19T03:57:34;10.00;;;8.68;;
47892;SDS011;33650;51.064;13.756;2022-08-19T04:00:05;12.25;;;9.70;;
47892;SDS011;33650;51.064;13.756;2022-08-19T04:02:37;13.73;;;11.18;;
47892;SDS011;33650;51.064;13.756;2022-08-19T04:05:08;15.88;;;10.05;;
47892;SDS011;33650;51.064;13.756;2022-08-19T04:07:39;11.10;;;8.80;;
47892;SDS011;33650;51.064;13.756;2022-08-19T04:10:10;9.90;;;8.95;;
47892;SDS011;33650;51.064;13.756;2022-08-19T04:12:41;9.50;;;7.90;;
47892;SDS011;33650;51.064;13.756;2022-08-19T04:15:12;13.43;;;8.57;;
47892;SDS011;33650;51.064;13.756;2022-08-19T04:17:43;11.88;;;9.93;;
47892;SDS011;33650;51.064;13.756;2022-08-19T04:20:14;11.23;;;9.65;;
47892;SDS011;33650;51.064;13.756;2022-08-19T04:22:45;10.38;;;9.27;;
47892;SDS011;33650;51.064;13.756;2022-08-19T04:25:16;11.10;;;9.75;;
47892;SDS011;33650;51.064;13.756;2022-08-19T04:27:48;13.98;;;10.98;;
47892;SDS011;33650;51.064;13.756;2022-08-19T04:30:19;12.20;;;9.70;;
47892;SDS011;33650;51.064;13.756;2022-08-19T04:32:52;10.93;;;9.68;;
47892;SDS011;33650;51.064;13.756;2022-08-19T04:35:23;13.50;;;11.05;;
47892;SDS011;33650;51.064;13.756;2022-08-19T04:37:54;10.63;;;9.50;;
47892;SDS011;33650;51.064;13.756;2022-08-19T04:40:25;13.60;;;10.88;;
47892;SDS011;33650;51.064;13.756;2022-08-19T04:43:15;9.98;;;8.88;;
47892;SDS011;33650;51.064;13.756;2022-08-19T04:45:46;11.55;;;10.45;;
47892;SDS011;33650;51.064;13.756;2022-08-19T04:48:17;11.18;;;8.60;;
47892;SDS011;33650;51.064;13.756;2022-08-19T04:50:56;12.90;;;9.80;;
47892;SDS011;33650;51.064;13.756;2022-08-19T04:53:29;12.90;;;10.35;;
47892;SDS011;33650;51.064;13.756;2022-08-19T04:56:03;14.32;;;10.23;;
47892;SDS011;33650;51.064;13.756;2022-08-19T04:58:35;14.43;;;9.50;;
47892;SDS011;33650;51.064;13.756;2022-08-19T05:01:06;12.15;;;9.85;;
47892;SDS011;33650;51.064;13.756;2022-08-19T05:03:38;11.73;;;8.95;;
47892;SDS011;33650;51.064;13.756;2022-08-19T05:06:11;11.65;;;10.45;;
47892;SDS011;33650;51.064;13.756;2022-08-19T05:08:43;12.93;;;9.50;;
47892;SDS011;33650;51.064;13.756;2022-08-19T05:11:33;18.10;;;10.18;;
47892;SDS011;33650;51.064;13.756;2022-08-19T05:14:05;14.73;;;10.85;;
47892;SDS011;33650;51.064;13.756;2022-08-19T05:16:37;13.73;;;9.38;;
47892;SDS011;33650;51.064;13.756;2022-08-19T05:19:08;12.80;;;10.98;;
47892;SDS011;33650;51.064;13.756;2022-08-19T05:21:59;11.55;;;9.52;;
47892;SDS011;33650;51.064;13.756;2022-08-19T05:24:49;10.02;;;9.00;;
47892;SDS011;33650;51.064;13.756;2022-08-19T05:27:20;23.80;;;11.32;;
47892;SDS011;33650;51.064;13.756;2022-08-19T05:29:51;11.77;;;9.15;;
47892;SDS011;33650;51.064;13.756;2022-08-19T05:32:22;10.80;;;9.07;;
47892;SDS011;33650;51.064;13.756;2022-08-19T05:34:53;13.45;;;10.38;;
47892;SDS011;33650;51.064;13.756;2022-08-19T05:37:24;16.58;;;10.45;;
47892;SDS011;33650;51.064;13.756;2022-08-19T05:39:57;13.35;;;10.55;;
47892;SDS011;33650;51.064;13.756;2022-08-19T05:42:28;13.18;;;10.65;;
47892;SDS011;33650;51.064;13.756;2022-08-19T05:45:00;11.02;;;9.93;;
47892;SDS011;33650;51.064;13.756;2022-08-19T05:47:31;11.95;;;10.27;;
47892;SDS011;33650;51.064;13.756;2022-08-19T05:50:03;13.27;;;9.95;;
47892;SDS011;33650;51.064;13.756;2022-08-19T05:52:34;12.23;;;9.65;;
47892;SDS011;33650;51.064;13.756;2022-08-19T05:55:08;13.80;;;10.32;;
47892;SDS011;33650;51.064;13.756;2022-08-19T05:57:39;13.40;;;10.43;;
47892;SDS011;33650;51.064;13.756;2022-08-19T06:00:10;11.63;;;9.40;;
47892;SDS011;33650;51.064;13.756;2022-08-19T06:02:42;11.18;;;8.45;;
47892;SDS011;33650;51.064;13.756;2022-08-19T06:05:13;11.45;;;9.30;;
47892;SDS011;33650;51.064;13.756;2022-08-19T06:07:44;9.57;;;8.27;;
47892;SDS011;33650;51.064;13.756;2022-08-19T06:10:15;9.15;;;8.23;;
47892;SDS011;33650;51.064;13.756;2022-08-19T06:12:47;8.85;;;7.88;;
47892;SDS011;33650;51.064;13.756;2022-08-19T06:15:18;9.23;;;7.97;;
47892;SDS011;33650;51.064;13.756;2022-08-19T06:17:49;9.77;;;7.88;;
47892;SDS011;33650;51.064;13.756;2022-08-19T06:20:20;10.27;;;8.73;;
47892;SDS011;33650;51.064;13.756;2022-08-19T06:22:51;11.57;;;7.93;;
47892;SDS011;33650;51.064;13.756;2022-08-19T06:25:23;8.48;;;7.68;;
47892;SDS011;33650;51.064;13.756;2022-08-19T06:27:54;8.30;;;7.50;;
47892;SDS011;33650;51.064;13.756;2022-08-19T06:30:25;6.68;;;5.43;;
47892;SDS011;33650;51.064;13.756;2022-08-19T06:32:57;6.50;;;5.63;;
47892;SDS011;33650;51.064;13.756;2022-08-19T06:35:28;7.15;;;5.85;;
47892;SDS011;33650;51.064;13.756;2022-08-19T06:37:59;5.80;;;5.20;;
47892;SDS011;33650;51.064;13.756;2022-08-19T06:40:30;7.38;;;6.05;;
47892;SDS011;33650;51.064;13.756;2022-08-19T06:43:01;10.68;;;6.80;;
47892;SDS011;33650;51.064;13.756;2022-08-19T06:45:32;7.15;;;5.50;;
47892;SDS011;33650;51.064;13.756;2022-08-19T06:48:04;9.45;;;7.93;;
47892;SDS011;33650;51.064;13.756;2022-08-19T06:50:36;6.88;;;5.95;;
47892;SDS011;33650;51.064;13.756;2022-08-19T06:53:08;6.75;;;6.10;;
47892;SDS011;33650;51.064;13.756;2022-08-19T06:55:38;8.45;;;7.03;;
47892;SDS011;33650;51.064;13.756;2022-08-19T06:58:10;7.15;;;6.45;;
47892;SDS011;33650;51.064;13.756;2022-08-19T07:00:41;10.80;;;7.75;;
47892;SDS011;33650;51.064;13.756;2022-08-19T07:03:12;9.07;;;7.63;;
47892;SDS011;33650;51.064;13.756;2022-08-19T07:05:43;9.43;;;8.32;;
47892;SDS011;33650;51.064;13.756;2022-08-19T07:08:15;9.82;;;8.25;;
47892;SDS011;33650;51.064;13.756;2022-08-19T07:10:46;9.77;;;7.93;;
47892;SDS011;33650;51.064;13.756;2022-08-19T07:13:17;9.45;;;7.30;;
47892;SDS011;33650;51.064;13.756;2022-08-19T07:15:49;8.90;;;7.90;;
47892;SDS011;33650;51.064;13.756;2022-08-19T07:18:20;9.68;;;8.68;;
47892;SDS011;33650;51.064;13.756;2022-08-19T07:21:01;8.68;;;7.53;;
47892;SDS011;33650;51.064;13.756;2022-08-19T07:23:33;12.15;;;8.20;;
47892;SDS011;33650;51.064;13.756;2022-08-19T07:26:05;9.65;;;8.20;;
47892;SDS011;33650;51.064;13.756;2022-08-19T07:28:36;12.48;;;8.50;;
47892;SDS011;33650;51.064;13.756;2022-08-19T07:31:12;12.32;;;9.45;;
47892;SDS011;33650;51.064;13.756;2022-08-19T07:33:44;12.57;;;9.55;;
47892;SDS011;33650;51.064;13.756;2022-08-19T07:36:17;11.27;;;8.60;;
47892;SDS011;33650;51.064;13.756;2022-08-19T07:38:49;12.05;;;9.10;;
47892;SDS011;33650;51.064;13.756;2022-08-19T07:41:22;11.18;;;8.85;;
47892;SDS011;33650;51.064;13.756;2022-08-19T07:43:54;11.07;;;8.07;;
47892;SDS011;33650;51.064;13.756;2022-08-19T07:46:25;11.25;;;9.27;;
47892;SDS011;33650;51.064;13.756;2022-08-19T07:48:56;10.57;;;8.75;;
47892;SDS011;33650;51.064;13.756;2022-08-19T07:51:28;14.75;;;8.55;;
47892;SDS011;33650;51.064;13.756;2022-08-19T07:53:59;11.30;;;8.63;;
47892;SDS011;33650;51.064;13.756;2022-08-19T07:56:30;11.65;;;9.45;;
47892;SDS011;33650;51.064;13.756;2022-08-19T07:59:01;14.95;;;9.65;;
47892;SDS011;33650;51.064;13.756;2022-08-19T08:01:32;12.20;;;9.27;;
47892;SDS011;33650;51.064;13.756;2022-08-19T08:04:03;11.07;;;9.48;;
47892;SDS011;33650;51.064;13.756;2022-08-19T08:09:43;13.80;;;9.50;;
47892;SDS011;33650;51.064;13.756;2022-08-19T08:12:16;16.00;;;10.15;;
47892;SDS011;33650;51.064;13.756;2022-08-19T08:14:49;13.18;;;9.95;;
47892;SDS011;33650;51.064;13.756;2022-08-19T08:17:21;12.32;;;10.02;;
47892;SDS011;33650;51.064;13.756;2022-08-19T08:19:52;11.00;;;9.15;;
47892;SDS011;33650;51.064;13.756;2022-08-19T08:22:24;12.77;;;9.60;;
47892;SDS011;33650;51.064;13.756;2022-08-19T08:27:44;14.55;;;11.95;;
47892;SDS011;33650;51.064;13.756;2022-08-19T08:30:17;11.35;;;9.38;;
47892;SDS011;33650;51.064;13.756;2022-08-19T08:32:49;11.88;;;8.98;;
47892;SDS011;33650;51.064;13.756;2022-08-19T08:35:21;10.93;;;9.20;;
47892;SDS011;33650;51.064;13.756;2022-08-19T08:37:53;12.20;;;10.38;;
47892;SDS011;33650;51.064;13.756;2022-08-19T08:40:29;10.23;;;8.48;;
47892;SDS011;33650;51.064;13.756;2022-08-19T08:43:09;10.73;;;8.35;;
47892;SDS011;33650;51.064;13.756;2022-08-19T08:45:46;10.43;;;8.90;;
47892;SDS011;33650;51.064;13.756;2022-08-19T08:48:19;10.05;;;8.93;;
47892;SDS011;33650;51.064;13.756;2022-08-19T08:50:51;10.25;;;9.10;;
47892;SDS011;33650;51.064;13.756;2022-08-19T08:53:23;9.73;;;7.85;;
47892;SDS011;33650;51.064;13.756;2022-08-19T08:55:55;9.70;;;7.65;;
47892;SDS011;33650;51.064;13.756;2022-08-19T08:58:42;8.20;;;6.85;;
47892;SDS011;33650;51.064;13.756;2022-08-19T09:01:14;8.65;;;7.22;;
47892;SDS011;33650;51.064;13.756;2022-08-19T09:03:45;9.82;;;8.57;;
47892;SDS011;33650;51.064;13.756;2022-08-19T09:14:34;6.63;;;5.95;;
47892;SDS011;33650;51.064;13.756;2022-08-19T09:17:08;9.60;;;8.07;;
47892;SDS011;33650;51.064;13.756;2022-08-19T09:22:46;8.98;;;8.07;;
47892;SDS011;33650;51.064;13.756;2022-08-19T09:25:20;10.88;;;8.40;;
47892;SDS011;33650;51.064;13.756;2022-08-19T09:27:54;10.85;;;8.77;;
47892;SDS011;33650;51.064;13.756;2022-08-19T09:30:27;10.52;;;9.45;;
47892;SDS011;33650;51.064;13.756;2022-08-19T09:32:58;11.27;;;8.35;;
47892;SDS011;33650;51.064;13.756;2022-08-19T09:35:30;13.25;;;7.45;;
47892;SDS011;33650;51.064;13.756;2022-08-19T09:38:01;10.60;;;8.20;;
47892;SDS011;33650;51.064;13.756;2022-08-19T09:40:32;11.18;;;7.65;;
47892;SDS011;33650;51.064;13.756;2022-08-19T09:43:03;9.23;;;8.13;;
47892;SDS011;33650;51.064;13.756;2022-08-19T09:45:35;12.10;;;9.30;;
47892;SDS011;33650;51.064;13.756;2022-08-19T09:48:06;8.18;;;7.22;;
47892;SDS011;33650;51.064;13.756;2022-08-19T09:50:37;11.40;;;8.65;;
47892;SDS011;33650;51.064;13.756;2022-08-19T09:53:08;10.30;;;6.85;;
47892;SDS011;33650;51.064;13.756;2022-08-19T09:55:43;10.40;;;8.13;;
47892;SDS011;33650;51.064;13.756;2022-08-19T09:58:14;8.95;;;7.80;;
47892;SDS011;33650;51.064;13.756;2022-08-19T10:00:45;9.52;;;7.80;;
47892;SDS011;33650;51.064;13.756;2022-08-19T10:03:16;9.57;;;8.57;;
47892;SDS011;33650;51.064;13.756;2022-08-19T10:05:47;9.93;;;7.63;;
47892;SDS011;33650;51.064;13.756;2022-08-19T10:08:23;9.00;;;6.68;;
47892;SDS011;33650;51.064;13.756;2022-08-19T10:10:55;8.27;;;7.45;;
47892;SDS011;33650;51.064;13.756;2022-08-19T10:13:28;9.82;;;7.45;;
47892;SDS011;33650;51.064;13.756;2022-08-19T10:16:04;8.95;;;7.57;;
47892;SDS011;33650;51.064;13.756;2022-08-19T10:18:36;7.93;;;7.03;;
47892;SDS011;33650;51.064;13.756;2022-08-19T10:21:09;7.65;;;6.57;;
47892;SDS011;33650;51.064;13.756;2022-08-19T10:23:42;7.85;;;7.07;;
47892;SDS011;33650;51.064;13.756;2022-08-19T10:26:17;7.22;;;6.53;;
47892;SDS011;33650;51.064;13.756;2022-08-19T10:28:49;11.05;;;6.90;;
47892;SDS011;33650;51.064;13.756;2022-08-19T10:31:24;7.93;;;5.65;;
47892;SDS011;33650;51.064;13.756;2022-08-19T10:33:55;6.50;;;5.55;;
47892;SDS011;33650;51.064;13.756;2022-08-19T10:36:31;6.57;;;5.88;;
47892;SDS011;33650;51.064;13.756;2022-08-19T10:39:03;7.50;;;6.03;;
47892;SDS011;33650;51.064;13.756;2022-08-19T10:41:37;6.03;;;5.43;;
47892;SDS011;33650;51.064;13.756;2022-08-19T10:44:09;5.82;;;4.38;;
47892;SDS011;33650;51.064;13.756;2022-08-19T10:46:41;5.75;;;5.13;;
47892;SDS011;33650;51.064;13.756;2022-08-19T10:49:12;5.63;;;5.00;;
47892;SDS011;33650;51.064;13.756;2022-08-19T10:51:43;7.97;;;4.72;;
47892;SDS011;33650;51.064;13.756;2022-08-19T10:54:33;5.40;;;4.47;;
47892;SDS011;33650;51.064;13.756;2022-08-19T10:57:23;6.25;;;5.65;;
47892;SDS011;33650;51.064;13.756;2022-08-19T10:59:59;5.60;;;4.85;;
47892;SDS011;33650;51.064;13.756;2022-08-19T11:02:30;5.80;;;5.10;;
47892;SDS011;33650;51.064;13.756;2022-08-19T11:05:02;5.60;;;4.53;;
47892;SDS011;33650;51.064;13.756;2022-08-19T11:07:33;5.20;;;4.68;;
47892;SDS011;33650;51.064;13.756;2022-08-19T11:10:05;5.78;;;5.03;;
47892;SDS011;33650;51.064;13.756;2022-08-19T11:12:37;6.18;;;5.57;;
47892;SDS011;33650;51.064;13.756;2022-08-19T11:15:11;5.15;;;4.65;;
47892;SDS011;33650;51.064;13.756;2022-08-19T11:17:43;5.47;;;4.78;;
47892;SDS011;33650;51.064;13.756;2022-08-19T11:20:14;5.50;;;4.88;;
47892;SDS011;33650;51.064;13.756;2022-08-19T11:22:45;6.65;;;4.90;;
47892;SDS011;33650;51.064;13.756;2022-08-19T11:25:16;4.70;;;4.13;;
47892;SDS011;33650;51.064;13.756;2022-08-19T11:27:48;6.38;;;4.75;;
47892;SDS011;33650;51.064;13.756;2022-08-19T11:30:21;5.80;;;5.28;;
47892;SDS011;33650;51.064;13.756;2022-08-19T11:32:52;6.20;;;5.07;;
47892;SDS011;33650;51.064;13.756;2022-08-19T11:35:23;6.13;;;5.30;;
47892;SDS011;33650;51.064;13.756;2022-08-19T11:37:54;7.13;;;5.97;;
47892;SDS011;33650;51.064;13.756;2022-08-19T11:40:27;7.45;;;6.05;;
47892;SDS011;33650;51.064;13.756;2022-08-19T11:42:58;8.48;;;5.53;;
47892;SDS011;33650;51.064;13.756;2022-08-19T11:45:30;6.95;;;6.20;;
47892;SDS011;33650;51.064;13.756;2022-08-19T11:48:01;8.18;;;6.55;;
47892;SDS011;33650;51.064;13.756;2022-08-19T11:50:32;8.10;;;5.55;;
47892;SDS011;33650;51.064;13.756;2022-08-19T11:53:03;6.97;;;6.03;;
47892;SDS011;33650;51.064;13.756;2022-08-19T11:55:36;6.32;;;5.63;;
47892;SDS011;33650;51.064;13.756;2022-08-19T11:58:09;7.55;;;5.60;;
47892;SDS011;33650;51.064;13.756;2022-08-19T12:00:40;9.73;;;6.82;;
47892;SDS011;33650;51.064;13.756;2022-08-19T12:03:12;6.63;;;5.45;;
47892;SDS011;33650;51.064;13.756;2022-08-19T12:05:43;6.47;;;5.15;;
47892;SDS011;33650;51.064;13.756;2022-08-19T12:08:15;6.88;;;6.15;;
47892;SDS011;33650;51.064;13.756;2022-08-19T12:10:46;8.15;;;6.63;;
47892;SDS011;33650;51.064;13.756;2022-08-19T12:13:17;9.45;;;7.78;;
47892;SDS011;33650;51.064;13.756;2022-08-19T12:15:48;11.15;;;7.97;;
47892;SDS011;33650;51.064;13.756;2022-08-19T12:18:19;9.13;;;8.10;;
47892;SDS011;33650;51.064;13.756;2022-08-19T12:20:51;9.93;;;8.50;;
47892;SDS011;33650;51.064;13.756;2022-08-19T12:23:23;10.15;;;8.55;;
47892;SDS011;33650;51.064;13.756;2022-08-19T12:25:54;9.90;;;7.28;;
47892;SDS011;33650;51.064;13.756;2022-08-19T12:28:27;11.63;;;8.52;;
47892;SDS011;33650;51.064;13.756;2022-08-19T12:30:58;11.30;;;8.68;;
47892;SDS011;33650;51.064;13.756;2022-08-19T12:33:29;16.33;;;9.55;;
47892;SDS011;33650;51.064;13.756;2022-08-19T12:36:06;11.23;;;9.70;;
47892;SDS011;33650;51.064;13.756;2022-08-19T12:38:37;13.98;;;10.25;;
47892;SDS011;33650;51.064;13.756;2022-08-19T12:41:09;13.32;;;10.10;;
47892;SDS011;33650;51.064;13.756;2022-08-19T12:43:41;16.55;;;9.68;;
47892;SDS011;33650;51.064;13.756;2022-08-19T12:46:12;10.45;;;9.25;;
47892;SDS011;33650;51.064;13.756;2022-08-19T12:48:44;11.48;;;8.88;;
47892;SDS011;33650;51.064;13.756;2022-08-19T12:51:17;12.85;;;10.10;;
47892;SDS011;33650;51.064;13.756;2022-08-19T12:53:49;11.25;;;9.02;;
47892;SDS011;33650;51.064;13.756;2022-08-19T12:56:20;11.15;;;8.13;;
47892;SDS011;33650;51.064;13.756;2022-08-19T12:58:51;11.38;;;8.55;;
47892;SDS011;33650;51.064;13.756;2022-08-19T13:01:23;9.88;;;8.65;;
47892;SDS011;33650;51.064;13.756;2022-08-19T13:03:54;13.40;;;9.57;;
47892;SDS011;33650;51.064;13.756;2022-08-19T13:06:25;11.95;;;8.93;;
47892;SDS011;33650;51.064;13.756;2022-08-19T13:08:56;10.15;;;9.02;;
47892;SDS011;33650;51.064;13.756;2022-08-19T13:11:27;15.07;;;10.43;;
47892;SDS011;33650;51.064;13.756;2022-08-19T13:14:02;9.20;;;7.82;;
47892;SDS011;33650;51.064;13.756;2022-08-19T13:16:33;10.98;;;9.02;;
47892;SDS011;33650;51.064;13.756;2022-08-19T13:19:04;15.90;;;9.77;;
47892;SDS011;33650;51.064;13.756;2022-08-19T13:21:37;9.88;;;8.82;;
47892;SDS011;33650;51.064;13.756;2022-08-19T13:24:08;11.55;;;9.15;;
47892;SDS011;33650;51.064;13.756;2022-08-19T13:26:39;13.32;;;10.63;;
47892;SDS011;33650;51.064;13.756;2022-08-19T13:29:10;11.95;;;10.07;;
47892;SDS011;33650;51.064;13.756;2022-08-19T13:32:00;16.85;;;12.00;;
47892;SDS011;33650;51.064;13.756;2022-08-19T13:34:50;13.00;;;10.25;;
47892;SDS011;33650;51.064;13.756;2022-08-19T13:37:21;15.35;;;10.43;;
47892;SDS011;33650;51.064;13.756;2022-08-19T13:40:12;13.73;;;10.45;;
47892;SDS011;33650;51.064;13.756;2022-08-19T13:42:46;19.65;;;11.63;;
47892;SDS011;33650;51.064;13.756;2022-08-19T13:45:19;17.08;;;11.32;;
47892;SDS011;33650;51.064;13.756;2022-08-19T13:47:51;17.10;;;11.48;;
47892;SDS011;33650;51.064;13.756;2022-08-19T13:50:25;15.55;;;10.77;;
47892;SDS011;33650;51.064;13.756;2022-08-19T13:52:56;14.30;;;10.73;;
47892;SDS011;33650;51.064;13.756;2022-08-19T13:55:27;18.75;;;11.05;;
47892;SDS011;33650;51.064;13.756;2022-08-19T13:57:59;13.77;;;9.98;;
47892;SDS011;33650;51.064;13.756;2022-08-19T14:00:33;11.52;;;9.50;;
47892;SDS011;33650;51.064;13.756;2022-08-19T14:03:04;18.17;;;11.73;;
47892;SDS011;33650;51.064;13.756;2022-08-19T14:05:36;12.50;;;10.52;;
47892;SDS011;33650;51.064;13.756;2022-08-19T14:08:07;16.13;;;11.10;;
47892;SDS011;33650;51.064;13.756;2022-08-19T14:10:39;13.25;;;10.98;;
47892;SDS011;33650;51.064;13.756;2022-08-19T14:13:14;18.58;;;11.73;;
47892;SDS011;33650;51.064;13.756;2022-08-19T14:15:45;15.23;;;11.20;;
47892;SDS011;33650;51.064;13.756;2022-08-19T14:18:17;16.58;;;12.43;;
47892;SDS011;33650;51.064;13.756;2022-08-19T14:20:48;17.08;;;12.48;;
47892;SDS011;33650;51.064;13.756;2022-08-19T14:23:19;11.30;;;9.80;;
47892;SDS011;33650;51.064;13.756;2022-08-19T14:25:50;16.15;;;10.85;;
47892;SDS011;33650;51.064;13.756;2022-08-19T14:28:22;16.10;;;12.10;;
47892;SDS011;33650;51.064;13.756;2022-08-19T14:30:53;18.30;;;12.45;;
47892;SDS011;33650;51.064;13.756;2022-08-19T14:33:24;18.38;;;12.32;;
47892;SDS011;33650;51.064;13.756;2022-08-19T14:35:55;20.08;;;13.50;;
47892;SDS011;33650;51.064;13.756;2022-08-19T14:38:26;20.35;;;12.82;;
47892;SDS011;33650;51.064;13.756;2022-08-19T14:41:32;18.38;;;13.90;;
47892;SDS011;33650;51.064;13.756;2022-08-19T14:43:57;16.90;;;11.93;;
47892;SDS011;33650;51.064;13.756;2022-08-19T14:46:29;18.45;;;12.65;;
47892;SDS011;33650;51.064;13.756;2022-08-19T14:49:00;15.57;;;11.77;;
47892;SDS011;33650;51.064;13.756;2022-08-19T14:51:31;15.48;;;12.18;;
47892;SDS011;33650;51.064;13.756;2022-08-19T14:54:02;15.55;;;12.75;;
47892;SDS011;33650;51.064;13.756;2022-08-19T14:56:33;22.75;;;15.60;;
47892;SDS011;33650;51.064;13.756;2022-08-19T14:59:04;17.65;;;13.40;;
47892;SDS011;33650;51.064;13.756;2022-08-19T15:01:36;17.38;;;13.25;;
47892;SDS011;33650;51.064;13.756;2022-08-19T15:04:07;20.95;;;15.13;;
47892;SDS011;33650;51.064;13.756;2022-08-19T15:06:38;19.65;;;13.38;;
47892;SDS011;33650;51.064;13.756;2022-08-19T15:09:12;19.05;;;14.60;;